KDFI/DFI METAR and TAF weather

Enter ICAO airport designator
Station Type Date Time Source
KDFI METAR 2022/01/29 08:53 UTC NOAA

KDFI 290853Z AUTO 00000KT 10SM CLR M21/M24 A3026 RMK AO2 SLP262 I1000 I3000 T12061239 56010


Station Type Date Time Source
KDFI Decoded METAR 2022/01/29 08:53 UTC NOAA

DEFIANCE MEMORIAL AIRPORT, OH, United States (KDFI) 41-20N 84-26W 219M
Jan 29, 2022 - 03:53 AM EST / 2022.01.29 0853 UTC
Wind: Calm:0
Visibility: 10 mile(s):0
Sky conditions: clear
Temperature: -5.1 F (-20.6 C)
Dew Point: -11.0 F (-23.9 C)
Relative Humidity: 74%
Pressure (altimeter): 30.26 in. Hg (1024 hPa)
Pressure tendency: 0.03 inches (1.0 hPa) lower than three hours ago
ob: KDFI 290853Z AUTO 00000KT 10SM CLR M21/M24 A3026 RMK AO2 SLP262 I1000 I3000 T12061239 56010
cycle: 9

Station Type Date Time Source
KDFI TAF UTC NOAA

Error!

Example: see airport list